Time;durP1;ratioP1;P1;durP2;ratioP2;P2;SDS_P1;SDS_P2;PMS_P1;PMS_P2;Temp;Humidity;BMP_temperature;BMP_pressure;BME280_temperature;BME280_humidity;BME280_pressure;Samples;Min_cycle;Max_cycle;Signal;HPM_P1;HPM_P2
2023/10/11 00:03:54;;;;;;;14.48;6.78;;;8.90;99.90;;;;;;8257552;28;20026;-86
2023/10/11 00:07:57;;;;;;;11.38;5.82;;;8.80;99.90;;;;;;8266856;28;20129;-86
2023/10/11 00:11:58;;;;;;;12.18;5.82;;;8.70;99.90;;;;;;8270729;28;20554;-86
2023/10/11 00:16:07;;;;;;;14.18;6.30;;;8.70;99.90;;;;;;8270641;28;20022;-86
2023/10/11 00:20:16;;;;;;;11.35;6.70;;;8.60;99.90;;;;;;8268161;28;20121;-85
2023/10/11 00:24:17;;;;;;;13.82;7.25;;;8.60;99.90;;;;;;8259599;28;20508;-85
2023/10/11 00:28:23;;;;;;;11.55;6.82;;;8.70;99.90;;;;;;8271656;28;20030;-86
2023/10/11 00:32:23;;;;;;;13.73;6.00;;;8.70;99.90;;;;;;8256470;28;20034;-86
2023/10/11 00:36:29;;;;;;;15.63;7.28;;;8.60;99.90;;;;;;8266922;28;20042;-85
2023/10/11 00:40:33;;;;;;;12.73;6.70;;;8.70;99.90;;;;;;8253353;28;20023;-86
2023/10/11 00:44:34;;;;;;;12.70;7.32;;;8.60;99.90;;;;;;8279005;28;20548;-85
2023/10/11 00:48:51;;;;;;;13.43;6.93;;;8.60;99.90;;;;;;8268414;28;20050;-86
2023/10/11 00:52:55;;;;;;;13.48;7.05;;;8.50;99.90;;;;;;8246700;28;20090;-86
2023/10/11 00:56:56;;;;;;;13.20;6.72;;;8.50;99.90;;;;;;8259897;28;20027;-86
2023/10/11 01:00:59;;;;;;;12.85;6.72;;;8.60;99.90;;;;;;8286480;28;20065;-86
2023/10/11 01:05:01;;;;;;;10.50;6.55;;;8.50;99.90;;;;;;8275259;28;20065;-86
2023/10/11 01:09:18;;;;;;;13.82;6.75;;;8.50;99.90;;;;;;8280091;28;20022;-86
2023/10/11 01:13:19;;;;;;;10.43;6.50;;;8.40;99.90;;;;;;8266779;28;20033;-86
2023/10/11 01:17:19;;;;;;;10.57;6.47;;;8.20;99.90;;;;;;8271838;28;20474;-85
2023/10/11 01:21:20;;;;;;;10.27;5.78;;;8.30;99.90;;;;;;8253008;28;20052;-85
2023/10/11 01:25:20;;;;;;;11.32;6.63;;;8.30;99.90;;;;;;8244048;28;20038;-85
2023/10/11 01:29:22;;;;;;;12.45;7.32;;;8.30;99.90;;;;;;8269253;28;20057;-86
2023/10/11 01:33:22;;;;;;;12.93;6.47;;;8.30;99.90;;;;;;8269211;28;20057;-85
2023/10/11 01:37:23;;;;;;;11.93;6.82;;;8.30;99.90;;;;;;8264728;28;20430;-86
2023/10/11 01:41:26;;;;;;;11.52;7.00;;;8.50;99.90;;;;;;8268921;28;20065;-86
2023/10/11 01:45:27;;;;;;;11.10;6.97;;;8.40;99.90;;;;;;8270444;28;20025;-86
2023/10/11 01:49:28;;;;;;;9.35;5.68;;;8.30;99.90;;;;;;8272218;28;20650;-85
2023/10/11 01:53:28;;;;;;;9.25;5.78;;;8.20;99.90;;;;;;8260391;28;20077;-85
2023/10/11 01:57:28;;;;;;;12.10;6.28;;;8.10;99.90;;;;;;8257333;28;20018;-85
2023/10/11 02:01:38;;;;;;;12.20;5.78;;;8.00;99.90;;;;;;8279567;28;20022;-86
2023/10/11 02:05:39;;;;;;;12.43;6.32;;;8.10;99.90;;;;;;8256750;28;20027;-85
2023/10/11 02:09:39;;;;;;;11.75;6.13;;;8.00;99.90;;;;;;8268941;28;20494;-85
2023/10/11 02:13:44;;;;;;;9.57;6.18;;;8.00;99.90;;;;;;8257961;28;20513;-85
2023/10/11 02:17:47;;;;;;;11.65;6.47;;;7.90;99.90;;;;;;8262609;28;20035;-85
2023/10/11 02:21:47;;;;;;;12.68;6.55;;;7.90;99.90;;;;;;8269985;28;20438;-85
2023/10/11 02:25:48;;;;;;;14.05;6.20;;;7.80;99.90;;;;;;8274694;28;20037;-84
2023/10/11 02:29:48;;;;;;;13.00;6.63;;;7.80;99.90;;;;;;8271778;28;20068;-85
2023/10/11 02:33:51;;;;;;;11.35;6.55;;;7.80;99.90;;;;;;8261606;28;20537;-85
2023/10/11 02:37:55;;;;;;;14.20;6.72;;;8.10;99.90;;;;;;8250222;28;20054;-85
2023/10/11 02:41:57;;;;;;;12.60;5.82;;;8.10;99.90;;;;;;8267063;28;20505;-85
2023/10/11 02:45:59;;;;;;;8.40;5.20;;;8.10;99.90;;;;;;8263011;28;20031;-85
2023/10/11 02:50:05;;;;;;;11.13;5.80;;;8.00;99.90;;;;;;8258883;28;20442;-85
2023/10/11 02:54:05;;;;;;;11.80;6.00;;;8.00;99.90;;;;;;8281069;28;20030;-84
2023/10/11 02:58:06;;;;;;;10.32;5.68;;;8.10;99.90;;;;;;8269569;28;20064;-85
2023/10/11 03:02:07;;;;;;;8.93;5.00;;;8.20;99.90;;;;;;8276370;28;20073;-85
2023/10/11 03:06:08;;;;;;;13.57;5.88;;;8.20;99.90;;;;;;8260268;28;20650;-84
2023/10/11 03:10:13;;;;;;;10.73;5.70;;;8.20;99.90;;;;;;8258609;28;20066;-84
2023/10/11 03:14:14;;;;;;;9.75;5.60;;;8.30;99.90;;;;;;8228898;28;20030;-85
2023/10/11 03:18:14;;;;;;;10.02;5.72;;;8.50;99.90;;;;;;8270689;28;20084;-86
2023/10/11 03:22:19;;;;;;;9.00;4.95;;;8.60;99.90;;;;;;8274228;28;20053;-86
2023/10/11 03:30:35;;;;;;;10.13;4.85;;;8.20;99.90;;;;;;8284872;28;20056;-86
2023/10/11 03:34:36;;;;;;;9.10;4.72;;;8.00;99.90;;;;;;8268917;28;20022;-85
2023/10/11 03:38:40;;;;;;;9.63;4.75;;;8.00;99.90;;;;;;8250662;28;20050;-86
2023/10/11 03:42:59;;;;;;;8.48;5.13;;;7.90;99.90;;;;;;8272097;28;20394;-86
2023/10/11 03:47:05;;;;;;;18.05;5.25;;;7.90;99.90;;;;;;8257554;28;20549;-86
2023/10/11 03:51:06;;;;;;;10.40;5.50;;;7.90;99.90;;;;;;8265796;28;20062;-86
2023/10/11 03:55:10;;;;;;;9.40;5.20;;;7.90;99.90;;;;;;8268892;28;20048;-86
2023/10/11 03:59:12;;;;;;;7.47;4.97;;;7.80;99.90;;;;;;8268880;28;20019;-86
2023/10/11 04:03:14;;;;;;;10.00;5.07;;;7.70;99.90;;;;;;8279998;28;20022;-86
2023/10/11 04:07:16;;;;;;;10.45;4.65;;;7.70;99.90;;;;;;8256796;28;20129;-86
2023/10/11 04:11:18;;;;;;;10.10;5.18;;;7.90;99.90;;;;;;8272731;28;20509;-86
2023/10/11 04:15:24;;;;;;;9.90;5.05;;;8.00;99.90;;;;;;8254270;28;20026;-86
2023/10/11 04:19:24;;;;;;;10.85;5.18;;;8.00;99.90;;;;;;8252761;28;20548;-85
2023/10/11 04:23:27;;;;;;;11.02;4.47;;;8.10;99.90;;;;;;8248922;28;20058;-85
2023/10/11 04:36:11;;;;;;;13.20;5.20;;;8.10;99.90;;;;;;8216558;28;20042;-86
2023/10/11 04:44:35;;;;;;;7.85;4.50;;;7.80;99.90;;;;;;8255785;28;20084;-85
2023/10/11 04:48:41;;;;;;;7.35;4.28;;;7.70;99.90;;;;;;8263080;28;20379;-86
2023/10/11 04:52:47;;;;;;;7.93;4.43;;;7.60;99.90;;;;;;8265008;28;20021;-86
2023/10/11 05:00:49;;;;;;;7.35;4.15;;;7.40;99.90;;;;;;8264090;28;20019;-86
2023/10/11 05:04:51;;;;;;;11.18;4.88;;;7.30;99.90;;;;;;8258331;28;20053;-85
2023/10/11 05:08:54;;;;;;;10.63;5.53;;;7.40;99.90;;;;;;8261032;28;20398;-86
2023/10/11 05:13:12;;;;;;;12.43;6.03;;;7.60;99.90;;;;;;8254921;28;20045;-86
2023/10/11 05:21:16;;;;;;;12.05;5.15;;;7.50;99.90;;;;;;8264971;28;20077;-85
2023/10/11 05:29:52;;;;;;;13.77;4.68;;;7.60;99.90;;;;;;8261636;28;20037;-85
2023/10/11 05:51:11;;;;;;;9.65;5.03;;;8.10;99.90;;;;;;8258260;28;20049;-86
2023/10/11 05:55:12;;;;;;;8.15;4.88;;;8.20;99.90;;;;;;8253433;28;20038;-85
2023/10/11 05:59:14;;;;;;;9.90;4.65;;;8.20;99.90;;;;;;8269736;28;20022;-86
2023/10/11 06:03:15;;;;;;;9.10;4.47;;;8.20;99.90;;;;;;8254630;28;20057;-85
2023/10/11 06:07:19;;;;;;;11.43;4.47;;;8.10;99.90;;;;;;8263576;28;20101;-85
2023/10/11 06:11:20;;;;;;;8.88;4.47;;;8.10;99.90;;;;;;8254954;28;20058;-85
2023/10/11 06:15:21;;;;;;;10.98;4.40;;;8.10;99.90;;;;;;8257707;28;20026;-85
2023/10/11 06:19:27;;;;;;;9.43;4.75;;;8.10;99.90;;;;;;8264737;28;20049;-85
2023/10/11 06:23:28;;;;;;;10.38;5.22;;;8.30;99.90;;;;;;8257891;28;20034;-85
2023/10/11 06:31:47;;;;;;;10.43;4.75;;;8.50;99.90;;;;;;8269770;28;20042;-85
2023/10/11 06:35:49;;;;;;;8.98;4.85;;;8.70;99.90;;;;;;8267707;28;20049;-85
2023/10/11 06:43:51;;;;;;;12.25;5.85;;;9.00;99.90;;;;;;8277576;28;20035;-85
2023/10/11 06:47:52;;;;;;;13.52;5.50;;;9.10;99.90;;;;;;8255229;28;20030;-85
2023/10/11 06:51:52;;;;;;;14.65;5.50;;;9.10;99.90;;;;;;8256072;28;20055;-85
2023/10/11 06:55:53;;;;;;;14.40;5.95;;;9.20;99.90;;;;;;8254385;28;20553;-85
2023/10/11 06:59:57;;;;;;;11.48;5.20;;;9.30;99.90;;;;;;8282754;28;20037;-85
2023/10/11 07:03:57;;;;;;;10.68;5.22;;;9.40;99.90;;;;;;8252286;28;20571;-85
2023/10/11 07:08:04;;;;;;;10.48;5.47;;;9.60;99.90;;;;;;8250679;28;20045;-85
2023/10/11 07:16:31;;;;;;;11.88;5.30;;;9.90;99.90;;;;;;8255457;28;20073;-85
2023/10/11 07:20:58;;;;;;;16.25;5.40;;;10.10;99.90;;;;;;8251697;28;20704;-86
2023/10/11 07:25:36;;;;;;;8.07;5.03;;;10.10;99.90;;;;;;8271212;28;20030;-86
2023/10/11 07:29:21;;;;;;;9.23;5.90;;;10.20;99.90;;;;;;8278190;28;20038;-86
2023/10/11 07:33:21;;;;;;;11.68;5.55;;;10.40;99.90;;;;;;8257679;28;20050;-85
2023/10/11 07:37:26;;;;;;;10.13;5.90;;;10.60;99.90;;;;;;8260092;28;20042;-86
2023/10/11 07:41:28;;;;;;;9.93;5.65;;;10.70;99.90;;;;;;8251517;28;20041;-86
2023/10/11 07:45:29;;;;;;;12.65;5.20;;;10.90;99.90;;;;;;8252675;28;20030;-85
2023/10/11 07:49:37;;;;;;;10.77;5.80;;;11.20;99.90;;;;;;8256412;28;20034;-86
2023/10/11 07:53:43;;;;;;;12.02;6.20;;;11.40;99.90;;;;;;8249056;28;20315;-86
2023/10/11 07:57:46;;;;;;;12.32;5.05;;;11.80;99.90;;;;;;8248242;28;20483;-86
2023/10/11 08:01:47;;;;;;;9.10;5.07;;;12.20;99.90;;;;;;8250812;28;20024;-86
2023/10/11 08:05:53;;;;;;;11.82;4.60;;;12.40;99.90;;;;;;8262626;28;20053;-86
2023/10/11 08:09:55;;;;;;;10.25;4.60;;;12.60;99.90;;;;;;8250611;28;20117;-86
2023/10/11 08:14:01;;;;;;;10.90;4.20;;;12.90;99.90;;;;;;8252931;28;20026;-86
2023/10/11 08:18:01;;;;;;;9.90;4.60;;;13.20;99.90;;;;;;8265797;28;20065;-86
2023/10/11 08:22:09;;;;;;;12.82;4.78;;;14.00;99.90;;;;;;8256940;28;20030;-86
2023/10/11 08:26:21;;;;;;;11.23;4.07;;;14.40;99.90;;;;;;8265075;28;20027;-84
2023/10/11 08:30:23;;;;;;;7.90;3.78;;;14.90;99.90;;;;;;8243570;28;20026;-86
2023/10/11 08:34:27;;;;;;;10.73;4.53;;;15.30;99.90;;;;;;8262391;28;20112;-86
2023/10/11 08:38:28;;;;;;;9.27;4.40;;;15.30;99.90;;;;;;8243790;28;20109;-87
2023/10/11 08:42:30;;;;;;;12.57;4.25;;;15.60;99.90;;;;;;8254032;28;20030;-87
2023/10/11 08:46:32;;;;;;;9.80;4.28;;;15.70;99.90;;;;;;8248392;28;20434;-86
2023/10/11 08:50:34;;;;;;;10.43;3.90;;;16.10;99.90;;;;;;8242045;28;20026;-87
2023/10/11 08:54:36;;;;;;;8.75;3.40;;;16.40;99.90;;;;;;8241884;28;20402;-86
2023/10/11 08:58:36;;;;;;;8.35;3.55;;;16.80;99.90;;;;;;8260970;28;20033;-86
2023/10/11 09:02:40;;;;;;;8.40;3.55;;;17.30;99.90;;;;;;8248540;28;20025;-87
2023/10/11 09:06:45;;;;;;;8.48;3.58;;;17.60;99.90;;;;;;8258542;28;20069;-85
2023/10/11 09:10:49;;;;;;;12.20;3.65;;;18.00;99.90;;;;;;8258816;28;20033;-86
2023/10/11 09:15:03;;;;;;;9.40;3.08;;;18.40;99.90;;;;;;8249878;28;20021;-86
2023/10/11 09:19:10;;;;;;;11.07;3.55;;;18.90;99.90;;;;;;8247645;28;20027;-86
2023/10/11 09:23:19;;;;;;;14.80;4.03;;;19.50;99.90;;;;;;8253868;28;20035;-87
2023/10/11 09:27:19;;;;;;;5.57;2.90;;;20.20;99.90;;;;;;8248635;28;20034;-87
2023/10/11 09:31:23;;;;;;;6.60;3.28;;;20.50;99.90;;;;;;8254488;28;20031;-85
2023/10/11 09:35:26;;;;;;;6.22;2.97;;;20.80;99.90;;;;;;8264638;28;20054;-85
2023/10/11 09:39:29;;;;;;;7.75;3.00;;;21.00;99.90;;;;;;8265615;28;20492;-85
2023/10/11 09:43:32;;;;;;;6.82;3.05;;;21.30;99.90;;;;;;8252394;28;20489;-86
2023/10/11 09:47:34;;;;;;;6.88;3.17;;;21.60;99.90;;;;;;8264594;28;20045;-86
2023/10/11 09:51:35;;;;;;;8.52;3.00;;;22.00;99.90;;;;;;8276912;28;20037;-86
2023/10/11 09:55:43;;;;;;;8.13;3.42;;;22.50;99.90;;;;;;8260210;28;20022;-87
2023/10/11 09:59:59;;;;;;;9.10;2.97;;;23.20;99.90;;;;;;8264230;28;20471;-86
2023/10/11 10:04:06;;;;;;;7.85;3.15;;;23.60;99.90;;;;;;8271189;28;20223;-86
2023/10/11 10:08:14;;;;;;;8.30;2.75;;;23.30;99.90;;;;;;8256418;28;20166;-86
2023/10/11 10:12:20;;;;;;;10.60;3.00;;;23.00;99.90;;;;;;8261312;28;20508;-88
2023/10/11 10:16:59;;;;;;;10.15;3.40;;;22.50;99.90;;;;;;8266982;28;20084;-87
2023/10/11 10:21:02;;;;;;;11.95;3.28;;;22.30;99.90;;;;;;8261639;28;20497;-87
2023/10/11 10:25:19;;;;;;;7.15;3.45;;;22.60;99.90;;;;;;8276930;28;20096;-86
2023/10/11 10:29:19;;;;;;;8.88;3.10;;;22.60;99.90;;;;;;8255639;28;20034;-86
2023/10/11 10:33:23;;;;;;;5.40;3.50;;;22.60;99.90;;;;;;8250039;28;20031;-86
2023/10/11 10:37:45;;;;;;;10.48;3.03;;;22.60;99.90;;;;;;8256259;28;20033;-86
2023/10/11 10:42:13;;;;;;;8.02;3.33;;;23.00;99.90;;;;;;8266843;28;20022;-86
2023/10/11 10:46:16;;;;;;;6.35;2.97;;;23.00;99.90;;;;;;8267607;28;20058;-85
2023/10/11 10:50:21;;;;;;;7.75;3.17;;;23.30;99.90;;;;;;8268201;28;20471;-87
2023/10/11 10:54:25;;;;;;;7.63;3.20;;;24.30;99.90;;;;;;8260950;28;20018;-87
2023/10/11 10:58:27;;;;;;;5.40;2.70;;;25.60;99.90;;;;;;8268513;28;20499;-87
2023/10/11 11:02:32;;;;;;;7.75;3.33;;;26.30;99.90;;;;;;8254436;28;20034;-85
2023/10/11 11:06:44;;;;;;;8.10;3.05;;;26.80;99.90;;;;;;8275760;28;20391;-86
2023/10/11 11:10:54;;;;;;;11.25;3.17;;;26.90;99.90;;;;;;8268705;28;20018;-85
2023/10/11 11:14:58;;;;;;;5.17;2.97;;;27.30;99.90;;;;;;8249987;28;20023;-87
2023/10/11 11:19:16;;;;;;;8.70;2.80;;;27.30;99.90;;;;;;8264381;28;20187;-86
2023/10/11 11:23:24;;;;;;;5.78;2.50;;;28.40;99.20;;;;;;8260040;28;20031;-87
2023/10/11 11:27:29;;;;;;;5.20;2.40;;;28.40;96.70;;;;;;8253422;28;20565;-87
2023/10/11 11:35:43;;;;;;;7.00;2.60;;;29.20;93.20;;;;;;8274681;28;20014;-89
2023/10/11 11:39:53;;;;;;;6.55;2.47;;;29.60;93.30;;;;;;8262136;28;20407;-87
2023/10/11 11:43:54;;;;;;;6.97;2.63;;;29.20;91.80;;;;;;8265008;28;20021;-87
2023/10/11 11:47:57;;;;;;;7.07;2.45;;;30.60;91.00;;;;;;8255293;28;20054;-85
2023/10/11 11:51:58;;;;;;;5.32;2.58;;;31.50;87.40;;;;;;8255206;28;20038;-88
2023/10/11 11:56:00;;;;;;;5.75;2.38;;;31.00;82.00;;;;;;8244425;28;20196;-88
2023/10/11 12:00:20;;;;;;;8.43;2.67;;;30.70;82.80;;;;;;8269896;28;20576;-87
2023/10/11 12:04:20;;;;;;;10.00;2.78;;;30.80;80.90;;;;;;8250022;28;20031;-86
2023/10/11 12:08:23;;;;;;;8.20;2.42;;;31.10;80.70;;;;;;8260256;28;20548;-89
2023/10/11 12:12:25;;;;;;;5.47;2.47;;;31.30;78.50;;;;;;8249887;28;20526;-86
2023/10/11 12:16:28;;;;;;;7.93;3.08;;;31.30;76.40;;;;;;8238186;28;20393;-88
2023/10/11 12:20:34;;;;;;;6.63;2.53;;;30.80;76.30;;;;;;8259633;28;20386;-86
2023/10/11 12:24:35;;;;;;;7.80;2.35;;;30.60;80.70;;;;;;8252980;28;20074;-87
2023/10/11 12:28:37;;;;;;;6.32;2.67;;;30.60;78.00;;;;;;8271208;28;20068;-88
2023/10/11 12:32:38;;;;;;;11.93;2.95;;;30.40;78.80;;;;;;8271001;28;20030;-89
2023/10/11 12:36:41;;;;;;;5.20;2.65;;;30.80;76.90;;;;;;8265371;28;20030;-86
2023/10/11 12:40:44;;;;;;;5.10;2.70;;;30.80;77.30;;;;;;8258218;28;20032;-87
2023/10/11 12:44:44;;;;;;;8.23;2.65;;;31.70;76.70;;;;;;8242109;28;20022;-87
2023/10/11 12:48:45;;;;;;;8.70;2.58;;;31.20;74.40;;;;;;8261144;28;20040;-88
2023/10/11 12:52:52;;;;;;;7.07;3.10;;;31.30;73.20;;;;;;8254083;28;20411;-87
2023/10/11 12:56:53;;;;;;;9.52;2.83;;;31.50;72.50;;;;;;8267018;28;20026;-88
2023/10/11 13:00:59;;;;;;;7.47;3.00;;;31.60;72.70;;;;;;8272852;28;20509;-88
2023/10/11 13:04:59;;;;;;;5.00;2.38;;;32.20;74.70;;;;;;8289814;28;20550;-88
2023/10/11 13:09:00;;;;;;;5.45;2.78;;;32.90;68.80;;;;;;8251315;28;20042;-86
2023/10/11 13:13:00;;;;;;;5.78;2.75;;;33.00;69.40;;;;;;8268640;28;20041;-87
2023/10/11 13:17:15;;;;;;;4.50;2.05;;;32.60;67.50;;;;;;8256836;28;20030;-86
2023/10/11 13:21:16;;;;;;;5.43;2.30;;;32.50;68.20;;;;;;8272967;28;20029;-88
2023/10/11 13:25:23;;;;;;;5.10;2.28;;;33.10;65.40;;;;;;8276838;28;20030;-87
2023/10/11 13:29:25;;;;;;;6.00;2.50;;;32.60;66.40;;;;;;8278208;28;20096;-87
2023/10/11 13:33:26;;;;;;;5.07;2.22;;;33.00;66.60;;;;;;8259896;28;20030;-88
2023/10/11 13:37:28;;;;;;;6.40;2.80;;;33.40;65.40;;;;;;8271201;28;20026;-87
2023/10/11 13:41:30;;;;;;;5.30;2.58;;;33.20;63.60;;;;;;8279189;28;20645;-87
2023/10/11 13:45:31;;;;;;;10.07;2.95;;;33.30;63.50;;;;;;8278682;28;20173;-88
2023/10/11 13:49:39;;;;;;;7.80;2.90;;;33.90;62.00;;;;;;8259880;28;20673;-88
2023/10/11 13:53:42;;;;;;;7.38;2.92;;;33.60;62.20;;;;;;8263361;28;20045;-87
2023/10/11 13:57:49;;;;;;;4.72;2.40;;;32.70;63.10;;;;;;8254365;28;20018;-87
2023/10/11 14:01:59;;;;;;;7.35;3.00;;;32.20;64.90;;;;;;8264237;28;20018;-86
2023/10/11 14:06:21;;;;;;;4.13;2.60;;;30.50;67.40;;;;;;8265755;28;20440;-88
2023/10/11 14:10:27;;;;;;;5.82;2.42;;;29.60;71.70;;;;;;8256148;28;20039;-87
2023/10/11 14:14:39;;;;;;;5.95;2.72;;;28.90;72.60;;;;;;8269632;28;20398;-87
2023/10/11 14:18:40;;;;;;;6.80;2.58;;;28.00;75.30;;;;;;8260938;28;20084;-88
2023/10/11 14:22:43;;;;;;;8.82;3.17;;;27.10;79.10;;;;;;8265323;28;20030;-87
2023/10/11 14:26:44;;;;;;;8.40;2.92;;;26.20;82.10;;;;;;8280153;28;20019;-89
2023/10/11 14:30:50;;;;;;;9.23;2.50;;;25.60;84.90;;;;;;8255510;28;20065;-90
2023/10/11 14:34:51;;;;;;;5.57;2.40;;;25.30;86.50;;;;;;8271435;28;20022;-88
2023/10/11 14:38:52;;;;;;;7.05;2.80;;;25.00;87.50;;;;;;8255666;28;20113;-90
2023/10/11 14:42:53;;;;;;;7.50;2.88;;;24.80;88.50;;;;;;8268689;28;20478;-89
2023/10/11 14:46:53;;;;;;;7.57;2.88;;;24.50;90.20;;;;;;8270222;28;20092;-90
2023/10/11 14:50:54;;;;;;;6.20;2.75;;;24.10;91.00;;;;;;8268812;28;20030;-89
2023/10/11 14:54:55;;;;;;;8.10;3.05;;;23.90;91.40;;;;;;8250663;28;20085;-89
2023/10/11 14:58:58;;;;;;;8.05;2.45;;;23.50;92.90;;;;;;8272122;28;20019;-89
2023/10/11 15:02:59;;;;;;;8.35;3.20;;;23.20;93.10;;;;;;8256332;28;20376;-89
2023/10/11 15:07:00;;;;;;;8.25;2.30;;;23.10;93.60;;;;;;8266151;28;20034;-88
2023/10/11 15:11:00;;;;;;;5.57;2.72;;;23.10;94.00;;;;;;8283264;28;20061;-88
2023/10/11 15:15:01;;;;;;;6.68;2.70;;;22.90;94.10;;;;;;8228766;28;20019;-88
2023/10/11 15:19:04;;;;;;;7.40;2.83;;;22.90;94.30;;;;;;8254383;28;20445;-88
2023/10/11 15:23:05;;;;;;;6.47;2.58;;;22.70;95.00;;;;;;8275983;28;20030;-87
2023/10/11 15:27:05;;;;;;;9.52;2.70;;;22.60;95.80;;;;;;8262069;28;20126;-88
2023/10/11 15:31:06;;;;;;;8.90;2.95;;;22.30;96.50;;;;;;8254837;28;20094;-88
2023/10/11 15:35:07;;;;;;;6.68;2.70;;;22.10;97.60;;;;;;8273461;28;20026;-88
2023/10/11 15:39:10;;;;;;;8.77;2.78;;;21.70;98.80;;;;;;8254685;28;20030;-88
2023/10/11 15:43:13;;;;;;;5.50;2.53;;;21.60;99.60;;;;;;8253386;28;20192;-88
2023/10/11 15:47:17;;;;;;;6.63;3.00;;;21.50;99.90;;;;;;8266479;28;20191;-88
2023/10/11 15:51:23;;;;;;;9.00;3.13;;;21.30;99.90;;;;;;8259321;28;20031;-89
2023/10/11 15:55:23;;;;;;;8.05;3.95;;;21.00;99.90;;;;;;8278460;28;20018;-88
2023/10/11 15:59:24;;;;;;;7.82;2.30;;;21.00;99.90;;;;;;8273719;28;20026;-85
2023/10/11 16:03:25;;;;;;;5.60;2.75;;;20.90;99.90;;;;;;8265294;28;20065;-85
2023/10/11 16:07:25;;;;;;;9.30;3.15;;;20.70;99.90;;;;;;8242682;28;20150;-86
2023/10/11 16:11:30;;;;;;;5.65;2.58;;;20.50;99.90;;;;;;8239616;28;20454;-86
2023/10/11 16:15:30;;;;;;;7.75;2.88;;;20.20;99.90;;;;;;8250380;28;20026;-87
2023/10/11 16:19:31;;;;;;;8.30;3.10;;;19.90;99.90;;;;;;8249593;28;20022;-86
2023/10/11 16:23:32;;;;;;;6.20;3.15;;;19.50;99.90;;;;;;8266568;28;20560;-86
2023/10/11 16:27:41;;;;;;;5.65;2.70;;;19.10;99.90;;;;;;8259401;28;20042;-86
2023/10/11 16:31:41;;;;;;;5.78;2.83;;;18.80;99.90;;;;;;8251218;28;20036;-88
2023/10/11 16:35:42;;;;;;;8.88;3.47;;;18.60;99.90;;;;;;8269686;28;20387;-88
2023/10/11 16:39:44;;;;;;;9.75;2.75;;;18.30;99.90;;;;;;8261655;28;20615;-88
2023/10/11 16:43:44;;;;;;;5.75;3.05;;;18.30;99.90;;;;;;8270856;28;20022;-88
2023/10/11 16:47:46;;;;;;;6.25;3.00;;;18.20;99.90;;;;;;8274569;28;20088;-89
2023/10/11 16:51:47;;;;;;;5.25;2.72;;;18.00;99.90;;;;;;8258508;28;20472;-88
2023/10/11 16:55:50;;;;;;;12.88;3.28;;;17.80;99.90;;;;;;8252170;28;20026;-87
2023/10/11 16:59:51;;;;;;;10.80;3.60;;;17.70;99.90;;;;;;8269624;28;20057;-87
2023/10/11 17:03:52;;;;;;;6.35;3.08;;;17.40;99.90;;;;;;8256750;28;20026;-87
2023/10/11 17:07:52;;;;;;;9.38;3.22;;;17.10;99.90;;;;;;8265745;28;20445;-87
2023/10/11 17:11:53;;;;;;;9.55;3.20;;;16.90;99.90;;;;;;8275669;28;20076;-87
2023/10/11 17:15:54;;;;;;;8.93;3.05;;;16.80;99.90;;;;;;8267335;28;20105;-88
2023/10/11 17:19:56;;;;;;;8.15;3.38;;;16.50;99.90;;;;;;8255322;28;20027;-87
2023/10/11 17:23:56;;;;;;;10.45;6.45;;;16.40;99.90;;;;;;8259245;28;20042;-88
2023/10/11 17:27:58;;;;;;;16.33;8.75;;;16.20;99.90;;;;;;8252991;28;20026;-87
2023/10/11 17:31:59;;;;;;;11.10;5.35;;;16.10;99.90;;;;;;8273468;28;20457;-87
2023/10/11 17:36:01;;;;;;;8.80;5.05;;;15.90;99.90;;;;;;8254461;28;20026;-88
2023/10/11 17:40:03;;;;;;;9.07;5.38;;;15.80;99.90;;;;;;8279052;28;20086;-87
2023/10/11 17:44:05;;;;;;;10.63;4.90;;;15.60;99.90;;;;;;8255749;28;20045;-87
2023/10/11 17:48:06;;;;;;;7.70;3.58;;;15.50;99.90;;;;;;8264536;28;20023;-87
2023/10/11 17:52:07;;;;;;;8.45;4.10;;;15.70;99.90;;;;;;8249893;28;20035;-87
2023/10/11 17:56:12;;;;;;;7.65;3.40;;;16.20;99.90;;;;;;8269301;28;20395;-87
2023/10/11 18:00:18;;;;;;;7.20;3.38;;;16.70;99.90;;;;;;8262003;28;20019;-87
2023/10/11 18:04:18;;;;;;;9.13;3.33;;;16.90;99.90;;;;;;8254949;28;20084;-87
2023/10/11 18:08:19;;;;;;;7.82;3.28;;;16.80;99.90;;;;;;8281262;28;20745;-87
2023/10/11 18:12:19;;;;;;;6.00;2.92;;;16.80;99.90;;;;;;8268999;28;20034;-87
2023/10/11 18:16:20;;;;;;;7.18;3.05;;;16.50;99.90;;;;;;8253887;28;20022;-88
2023/10/11 18:20:21;;;;;;;8.23;3.70;;;16.10;99.90;;;;;;8266688;28;20026;-87
2023/10/11 18:24:22;;;;;;;10.30;3.92;;;15.80;99.90;;;;;;8254883;28;20121;-88
2023/10/11 18:28:23;;;;;;;6.72;3.67;;;15.50;99.90;;;;;;8264213;28;20056;-87
2023/10/11 18:32:24;;;;;;;10.98;4.20;;;15.10;99.90;;;;;;8266670;28;20026;-88
2023/10/11 18:36:25;;;;;;;7.95;3.85;;;14.70;99.90;;;;;;8254050;28;20077;-87
2023/10/11 18:40:26;;;;;;;7.15;3.55;;;14.40;99.90;;;;;;8262699;28;20410;-87
2023/10/11 18:44:26;;;;;;;6.85;3.67;;;14.20;99.90;;;;;;8263256;28;20023;-87
2023/10/11 18:48:27;;;;;;;6.57;3.80;;;14.00;99.90;;;;;;8263188;28;20037;-87
2023/10/11 18:52:28;;;;;;;8.20;3.75;;;13.80;99.90;;;;;;8251999;28;20537;-87
2023/10/11 18:56:29;;;;;;;8.30;3.85;;;13.70;99.90;;;;;;8259457;28;20822;-87
2023/10/11 19:00:32;;;;;;;8.30;3.95;;;13.60;99.90;;;;;;8252815;28;20019;-87
2023/10/11 19:04:33;;;;;;;9.07;4.07;;;13.60;99.90;;;;;;8259022;28;20035;-87
2023/10/11 19:08:34;;;;;;;9.65;5.03;;;13.60;99.90;;;;;;8251195;28;20022;-86
2023/10/11 19:12:39;;;;;;;10.77;5.72;;;13.40;99.90;;;;;;8265906;28;20049;-87
2023/10/11 19:16:42;;;;;;;8.85;4.65;;;13.30;99.90;;;;;;8252535;28;20026;-87
2023/10/11 19:20:44;;;;;;;6.80;4.35;;;13.10;99.90;;;;;;8257111;28;20023;-87
2023/10/11 19:24:45;;;;;;;9.32;4.50;;;12.90;99.90;;;;;;8252502;28;20605;-87
2023/10/11 19:28:46;;;;;;;9.63;5.10;;;12.80;99.90;;;;;;8280110;28;20069;-87
2023/10/11 19:32:47;;;;;;;11.88;6.20;;;12.80;99.90;;;;;;8255479;28;20041;-87
2023/10/11 19:36:48;;;;;;;9.55;5.72;;;12.70;99.90;;;;;;8254561;28;20034;-87
2023/10/11 19:40:49;;;;;;;12.07;5.72;;;12.60;99.90;;;;;;8266555;28;20026;-87
2023/10/11 19:44:49;;;;;;;10.77;5.53;;;12.50;99.90;;;;;;8255179;28;20034;-87
2023/10/11 19:48:50;;;;;;;9.60;5.03;;;12.40;99.90;;;;;;8255574;28;20038;-87
2023/10/11 19:52:52;;;;;;;10.32;5.35;;;12.40;99.90;;;;;;8268892;28;20065;-87
2023/10/11 19:56:53;;;;;;;8.80;4.55;;;12.30;99.90;;;;;;8272170;28;20592;-87
2023/10/11 20:00:54;;;;;;;9.57;4.50;;;12.40;99.90;;;;;;8261388;28;20031;-84
2023/10/11 20:04:55;;;;;;;8.90;4.78;;;12.30;99.90;;;;;;8256577;28;20026;-83
2023/10/11 20:08:56;;;;;;;10.25;4.80;;;12.10;99.90;;;;;;8272441;28;20082;-84
2023/10/11 20:12:56;;;;;;;6.68;4.45;;;12.00;99.90;;;;;;8259146;28;20105;-83
2023/10/11 20:17:05;;;;;;;12.40;4.38;;;11.90;99.90;;;;;;8249640;28;20055;-83
2023/10/11 20:21:06;;;;;;;8.18;4.63;;;11.80;99.90;;;;;;8250842;28;20022;-83
2023/10/11 20:25:08;;;;;;;8.30;4.18;;;11.80;99.90;;;;;;8250025;28;20034;-83
2023/10/11 20:29:08;;;;;;;8.30;4.38;;;11.70;99.90;;;;;;8255392;28;20518;-83
2023/10/11 20:33:10;;;;;;;7.82;4.20;;;11.50;99.90;;;;;;8252924;28;20030;-83
2023/10/11 20:37:10;;;;;;;8.52;4.45;;;11.40;99.90;;;;;;8259721;28;20103;-83
2023/10/11 20:41:12;;;;;;;9.13;4.22;;;11.50;99.90;;;;;;8257578;28;20038;-83
2023/10/11 20:45:15;;;;;;;9.23;4.57;;;11.60;99.90;;;;;;8256173;28;20038;-83
2023/10/11 20:49:17;;;;;;;9.07;4.72;;;11.80;99.90;;;;;;8246275;28;20033;-84
2023/10/11 20:53:18;;;;;;;9.70;4.40;;;11.80;99.90;;;;;;8251690;28;20517;-83
2023/10/11 20:57:20;;;;;;;8.82;4.78;;;11.80;99.90;;;;;;8242880;28;20027;-84
2023/10/11 21:01:21;;;;;;;8.85;4.60;;;11.90;99.90;;;;;;8269765;28;20027;-83
2023/10/11 21:05:24;;;;;;;7.47;4.40;;;11.80;99.90;;;;;;8247639;28;20037;-83
2023/10/11 21:09:26;;;;;;;10.00;4.40;;;11.50;99.90;;;;;;8259187;28;20058;-83
2023/10/11 21:13:30;;;;;;;8.68;4.43;;;11.20;99.90;;;;;;8252983;28;20038;-84
2023/10/11 21:17:32;;;;;;;8.68;4.55;;;11.00;99.90;;;;;;8267379;28;20029;-84
2023/10/11 21:21:33;;;;;;;8.15;4.60;;;10.80;99.90;;;;;;8263119;28;20033;-82
2023/10/11 21:25:37;;;;;;;8.00;4.47;;;10.90;99.90;;;;;;8267700;28;20033;-81
2023/10/11 21:29:37;;;;;;;8.10;4.35;;;10.80;99.90;;;;;;8249756;28;20121;-83
2023/10/11 21:33:38;;;;;;;7.85;4.03;;;10.60;99.90;;;;;;8262474;28;20105;-83
2023/10/11 21:37:39;;;;;;;8.57;4.35;;;10.50;99.90;;;;;;8248610;28;20061;-83
2023/10/11 21:41:41;;;;;;;7.63;4.40;;;10.50;99.90;;;;;;8243685;28;20060;-83
2023/10/11 21:45:42;;;;;;;8.70;4.25;;;10.50;99.90;;;;;;8264927;28;20026;-83
2023/10/11 21:49:43;;;;;;;11.52;4.55;;;10.60;99.90;;;;;;8256586;28;20110;-83
2023/10/11 21:53:43;;;;;;;8.80;4.43;;;10.70;99.90;;;;;;8257580;28;20022;-83
2023/10/11 21:57:47;;;;;;;9.70;4.43;;;11.00;99.90;;;;;;8265024;28;20034;-82
2023/10/11 22:01:53;;;;;;;8.15;4.50;;;11.10;99.90;;;;;;8256310;28;20026;-83
2023/10/11 22:05:54;;;;;;;7.03;4.10;;;11.20;99.90;;;;;;8265147;28;20474;-83
2023/10/11 22:09:55;;;;;;;8.18;4.30;;;11.10;99.90;;;;;;8275841;28;20038;-82